Woodford, Vermont
Current Conditions -  °F | °C
As of 5:54 PM on Saturday 20 Dec 2014 (Local Time) from KDDH Reporting Station
Few Clouds Few Clouds  
Wind Chill: 22°   Ceiling: Unl
Heat Index: 22°   Visibility: 10mi
Dew Point: 16°   Wind: 3mph
Humidity: 78%   Direction: 190°S
Pressure: 30.26"   Gusts: NA
Location:  42.9148°N, 73.1152°W
Report Text: KDDH 202254Z AUTO 19003KT 10SM FEW065 M06/M09 A3026 RMK AO2 SLP260 T10561089
Loading
Personal Weather Stations






























Interactive Weather Map New forecast layout! Learn more

10-Day Weather Forecast

Advertisements
Track Severe Weather on mobile